createdAt,value
2022-08-28T00:02:15.817Z,17.29
2022-08-28T00:04:44.315Z,17.27
2022-08-28T00:07:12.901Z,17.33
2022-08-28T00:09:41.136Z,17.31
2022-08-28T00:12:10.399Z,17.37
2022-08-28T00:14:40.765Z,17.35
2022-08-28T00:17:09.084Z,17.42
2022-08-28T00:19:38.861Z,17.38
2022-08-28T00:22:07.691Z,17.51
2022-08-28T00:24:36.911Z,17.45
2022-08-28T00:27:22.976Z,17.38
2022-08-28T00:29:52.570Z,17.40
2022-08-28T00:32:22.339Z,17.39
2022-08-28T00:34:50.730Z,17.55
2022-08-28T00:37:19.040Z,17.50
2022-08-28T00:39:47.910Z,17.54
2022-08-28T00:42:17.120Z,17.70
2022-08-28T00:44:45.713Z,17.63
2022-08-28T00:47:15.461Z,17.64
2022-08-28T00:49:51.001Z,17.61
2022-08-28T00:52:20.312Z,17.61
2022-08-28T00:54:58.813Z,17.37
2022-08-28T00:57:30.997Z,17.69
2022-08-28T00:59:59.578Z,17.72
2022-08-28T01:02:29.829Z,17.85
2022-08-28T01:04:58.171Z,17.67
2022-08-28T01:07:26.553Z,17.68
2022-08-28T01:09:56.084Z,17.44
2022-08-28T01:12:29.851Z,17.32
2022-08-28T01:15:01.564Z,17.42
2022-08-28T01:17:34.335Z,17.21
2022-08-28T01:20:09.178Z,17.18
2022-08-28T01:22:41.564Z,17.17
2022-08-28T01:25:15.112Z,17.01
2022-08-28T01:27:43.934Z,17.18
2022-08-28T01:30:16.013Z,16.94
2022-08-28T01:32:48.495Z,17.14
2022-08-28T01:35:21.402Z,16.99
2022-08-28T01:37:49.786Z,16.94
2022-08-28T01:40:27.487Z,17.09
2022-08-28T01:42:56.167Z,16.49
2022-08-28T01:45:26.285Z,16.97
2022-08-28T01:47:57.193Z,17.04
2022-08-28T01:50:25.414Z,16.95
2022-08-28T01:52:53.644Z,16.91
2022-08-28T01:55:23.541Z,16.81
2022-08-28T01:57:56.457Z,17.01
2022-08-28T02:00:27.566Z,17.03
2022-08-28T02:02:58.264Z,16.95
2022-08-28T02:05:29.835Z,17.03
2022-08-28T02:07:59.152Z,17.08
2022-08-28T02:10:31.141Z,17.05
2022-08-28T02:13:01.098Z,17.11
2022-08-28T02:15:32.716Z,17.19
2022-08-28T02:18:02.100Z,17.07
2022-08-28T02:20:32.158Z,17.15
2022-08-28T02:23:00.904Z,17.17
2022-08-28T02:25:30.950Z,17.08
2022-08-28T02:27:59.841Z,17.14
2022-08-28T02:30:28.391Z,17.06
2022-08-28T02:32:56.661Z,17.01
2022-08-28T02:35:25.937Z,17.08
2022-08-28T02:37:55.514Z,16.95
2022-08-28T02:40:26.474Z,17.05
2022-08-28T02:42:56.080Z,16.99
2022-08-28T02:45:24.464Z,17.08
2022-08-28T02:47:54.557Z,17.03
2022-08-28T02:50:24.071Z,17.21
2022-08-28T02:52:53.622Z,17.07
2022-08-28T02:55:22.706Z,17.08
2022-08-28T02:57:51.344Z,17.06
2022-08-28T03:00:24.908Z,16.92
2022-08-28T03:02:54.115Z,17.00
2022-08-28T03:05:25.384Z,16.94
2022-08-28T03:07:56.183Z,16.82
2022-08-28T03:10:24.643Z,16.76
2022-08-28T03:12:53.043Z,16.71
2022-08-28T03:15:23.256Z,16.66
2022-08-28T03:17:51.762Z,16.63
2022-08-28T03:20:20.123Z,16.57
2022-08-28T03:23:06.350Z,16.11
2022-08-28T03:25:34.644Z,16.58
2022-08-28T03:28:03.135Z,16.62
2022-08-28T03:30:32.841Z,16.60
2022-08-28T03:35:53.592Z,16.38
2022-08-28T03:38:22.254Z,16.39
2022-08-28T03:40:54.349Z,16.39
2022-08-28T03:43:25.855Z,16.41
2022-08-28T03:45:59.065Z,16.08
2022-08-28T03:48:29.402Z,16.66
2022-08-28T03:50:58.443Z,16.55
2022-08-28T03:53:29.623Z,16.65
2022-08-28T03:55:58.634Z,16.52
2022-08-28T03:58:28.098Z,16.70
2022-08-28T04:00:57.684Z,16.63
2022-08-28T04:03:25.938Z,16.65
2022-08-28T04:05:54.277Z,16.57
2022-08-28T04:08:23.472Z,16.54
2022-08-28T04:10:52.593Z,16.61
2022-08-28T04:13:22.663Z,16.69
2022-08-28T04:16:00.089Z,16.62
2022-08-28T04:18:28.990Z,16.65
2022-08-28T04:21:03.095Z,16.62
2022-08-28T04:23:31.921Z,16.68
2022-08-28T04:26:00.321Z,16.47
2022-08-28T04:28:28.922Z,16.65
2022-08-28T04:30:58.523Z,16.65
2022-08-28T04:33:28.779Z,16.53
2022-08-28T04:35:58.240Z,16.48
2022-08-28T04:38:26.549Z,16.64
2022-08-28T04:40:54.737Z,16.40
2022-08-28T04:43:23.246Z,16.49
2022-08-28T04:45:51.711Z,16.59
2022-08-28T04:48:21.421Z,16.47
2022-08-28T04:50:51.180Z,16.58
2022-08-28T04:53:21.401Z,16.66
2022-08-28T04:55:54.898Z,16.71
2022-08-28T04:58:24.518Z,16.57
2022-08-28T05:00:54.586Z,16.64
2022-08-28T05:03:24.975Z,16.70
2022-08-28T05:05:55.659Z,16.62
2022-08-28T05:08:28.431Z,16.58
2022-08-28T05:10:58.010Z,16.66
2022-08-28T05:13:28.160Z,16.74
2022-08-28T05:15:56.406Z,16.76
2022-08-28T05:18:25.990Z,16.62
2022-08-28T05:20:54.263Z,16.66
2022-08-28T05:23:25.602Z,16.55
2022-08-28T05:25:54.041Z,16.55
2022-08-28T05:28:24.414Z,16.57
2022-08-28T05:30:53.394Z,16.47
2022-08-28T05:33:21.593Z,16.33
2022-08-28T05:35:51.191Z,16.44
2022-08-28T05:38:19.726Z,16.41
2022-08-28T05:40:49.872Z,16.31
2022-08-28T05:43:21.129Z,16.37
2022-08-28T05:46:00.188Z,16.25
2022-08-28T05:48:34.846Z,15.87
2022-08-28T05:51:10.666Z,16.35
2022-08-28T05:53:41.307Z,16.38
2022-08-28T05:56:10.341Z,16.23
2022-08-28T05:58:40.384Z,15.68
2022-08-28T06:01:12.603Z,16.35
2022-08-28T06:03:56.943Z,16.16
2022-08-28T06:06:35.579Z,16.42
2022-08-28T06:09:08.086Z,16.55
2022-08-28T06:11:38.773Z,16.02
2022-08-28T06:14:13.667Z,16.56
2022-08-28T06:16:47.139Z,16.66
2022-08-28T06:19:16.945Z,16.75
2022-08-28T06:21:48.157Z,17.06
2022-08-28T06:24:16.577Z,17.07
2022-08-28T06:26:45.903Z,17.13
2022-08-28T06:29:21.150Z,16.77
2022-08-28T06:31:55.856Z,17.51
2022-08-28T06:34:24.427Z,17.52
2022-08-28T06:36:54.722Z,17.57
2022-08-28T06:39:23.798Z,17.23
2022-08-28T06:41:52.362Z,17.67
2022-08-28T06:44:22.478Z,17.82
2022-08-28T06:46:53.541Z,17.75
2022-08-28T06:49:22.766Z,17.97
2022-08-28T06:51:52.994Z,17.93
2022-08-28T06:54:23.237Z,18.06
2022-08-28T06:56:52.385Z,18.11
2022-08-28T06:59:20.765Z,18.29
2022-08-28T07:01:49.286Z,18.32
2022-08-28T07:04:17.703Z,18.53
2022-08-28T07:06:53.707Z,18.66
2022-08-28T07:09:25.360Z,17.77
2022-08-28T07:11:53.781Z,18.71
2022-08-28T07:14:22.142Z,18.85
2022-08-28T07:16:50.576Z,18.91
2022-08-28T07:19:20.229Z,18.81
2022-08-28T07:21:49.006Z,19.20
2022-08-28T07:24:18.579Z,18.84
2022-08-28T07:26:50.196Z,18.82
2022-08-28T07:29:19.587Z,18.86
2022-08-28T07:31:51.539Z,18.99
2022-08-28T07:34:27.157Z,18.97
2022-08-28T07:36:56.308Z,19.00
2022-08-28T07:39:24.756Z,19.15
2022-08-28T07:41:54.336Z,19.28
2022-08-28T07:44:40.118Z,19.27
2022-08-28T07:47:11.559Z,19.39
2022-08-28T07:49:41.548Z,19.64
2022-08-28T07:52:10.991Z,19.80
2022-08-28T07:54:40.583Z,19.80
2022-08-28T07:57:11.047Z,19.74
2022-08-28T07:59:42.262Z,19.60
2022-08-28T08:02:11.536Z,19.78
2022-08-28T08:04:41.393Z,20.04
2022-08-28T08:07:09.908Z,19.83
2022-08-28T08:09:40.156Z,19.93
2022-08-28T08:12:11.108Z,19.85
2022-08-28T08:14:40.510Z,19.82
2022-08-28T08:17:10.190Z,19.97
2022-08-28T08:19:38.576Z,19.88
2022-08-28T08:22:06.984Z,19.89
2022-08-28T08:24:35.461Z,19.58
2022-08-28T08:27:06.599Z,19.31
2022-08-28T08:29:39.296Z,19.63
2022-08-28T08:32:11.384Z,19.49
2022-08-28T08:34:43.576Z,19.63
2022-08-28T08:37:13.330Z,19.67
2022-08-28T08:39:43.911Z,19.85
2022-08-28T08:42:22.897Z,19.82
2022-08-28T08:44:55.161Z,19.45
2022-08-28T08:47:37.778Z,19.98
2022-08-28T08:50:10.997Z,20.09
2022-08-28T08:52:59.700Z,20.14
2022-08-28T08:55:31.513Z,19.85
2022-08-28T08:58:09.170Z,20.52
2022-08-28T09:00:48.200Z,20.84
2022-08-28T09:03:24.562Z,20.79
2022-08-28T09:05:58.306Z,21.30
2022-08-28T09:08:38.237Z,21.12
2022-08-28T09:11:21.973Z,20.98
2022-08-28T09:14:00.344Z,20.98
2022-08-28T09:16:36.447Z,20.74
2022-08-28T09:19:08.393Z,20.73
2022-08-28T09:21:43.916Z,21.03
2022-08-28T09:24:22.583Z,21.39
2022-08-28T09:26:58.961Z,21.74
2022-08-28T09:29:32.757Z,21.82
2022-08-28T09:32:19.700Z,22.05
2022-08-28T09:35:05.926Z,21.91
2022-08-28T09:37:36.610Z,21.84
2022-08-28T09:40:22.026Z,22.31
2022-08-28T09:43:23.164Z,22.38
2022-08-28T09:45:59.752Z,22.15
2022-08-28T09:48:36.332Z,22.19
2022-08-28T09:51:08.134Z,21.83
2022-08-28T09:53:54.544Z,21.69
2022-08-28T09:56:28.929Z,21.39
2022-08-28T09:59:01.368Z,21.21
2022-08-28T10:02:13.154Z,21.20
2022-08-28T10:04:57.770Z,21.62
2022-08-28T10:07:40.942Z,21.24
2022-08-28T10:10:23.387Z,20.61
2022-08-28T10:13:05.320Z,21.35
2022-08-28T10:15:51.524Z,21.85
2022-08-28T10:18:39.380Z,22.09
2022-08-28T10:21:17.237Z,21.82
2022-08-28T10:24:24.749Z,22.44
2022-08-28T10:27:06.766Z,22.50
2022-08-28T10:29:50.443Z,22.82
2022-08-28T10:32:55.558Z,22.68
2022-08-28T10:35:28.006Z,22.70
2022-08-28T10:38:10.071Z,22.80
2022-08-28T10:40:41.895Z,23.17
2022-08-28T10:43:15.467Z,23.41
2022-08-28T10:45:44.026Z,23.52
2022-08-28T10:48:21.413Z,23.71
2022-08-28T10:50:54.596Z,23.78
2022-08-28T10:53:33.276Z,23.88
2022-08-28T10:56:08.336Z,23.74
2022-08-28T10:58:40.662Z,23.45
2022-08-28T11:01:13.360Z,23.58
2022-08-28T11:03:47.829Z,23.66
2022-08-28T11:06:26.145Z,23.74
2022-08-28T11:08:58.615Z,24.06
2022-08-28T11:11:46.072Z,23.91
2022-08-28T11:14:27.207Z,23.47
2022-08-28T11:17:01.422Z,23.18
2022-08-28T11:20:13.937Z,22.97
2022-08-28T11:22:47.435Z,22.57
2022-08-28T11:25:26.474Z,23.06
2022-08-28T11:28:38.192Z,23.15
2022-08-28T11:31:35.132Z,23.17
2022-08-28T11:34:05.568Z,23.32
2022-08-28T11:37:13.679Z,23.65
2022-08-28T11:39:41.894Z,23.73
2022-08-28T11:42:38.876Z,24.24
2022-08-28T11:45:08.238Z,24.15
2022-08-28T11:47:52.153Z,24.26
2022-08-28T11:50:32.793Z,23.47
2022-08-28T11:53:44.758Z,24.59
2022-08-28T11:56:42.482Z,24.68
2022-08-28T11:59:56.927Z,24.49
2022-08-28T12:02:56.996Z,24.52
2022-08-28T12:05:46.891Z,24.61
2022-08-28T12:09:04.012Z,24.14
2022-08-28T12:12:06.943Z,24.03
2022-08-28T12:15:02.364Z,24.28
2022-08-28T12:17:57.290Z,24.33
2022-08-28T12:20:40.224Z,24.60
2022-08-28T12:23:37.415Z,24.95
2022-08-28T12:26:10.192Z,25.40
2022-08-28T12:28:46.500Z,25.93
2022-08-28T12:32:08.414Z,26.42
2022-08-28T12:34:46.658Z,26.18
2022-08-28T12:37:51.317Z,25.59
2022-08-28T12:40:25.007Z,25.34
2022-08-28T12:42:56.979Z,24.93
2022-08-28T12:45:29.624Z,24.87
2022-08-28T12:48:03.553Z,24.69
2022-08-28T12:50:37.031Z,24.37
2022-08-28T12:53:15.874Z,24.25
2022-08-28T12:55:45.847Z,24.47
2022-08-28T12:58:29.369Z,24.34
2022-08-28T13:01:01.536Z,24.57
2022-08-28T13:03:32.294Z,24.51
2022-08-28T13:06:05.587Z,24.62
2022-08-28T13:08:35.257Z,24.68
2022-08-28T13:11:04.277Z,24.71
2022-08-28T13:13:38.648Z,24.82
2022-08-28T13:16:08.821Z,25.14
2022-08-28T13:18:52.179Z,25.05
2022-08-28T13:21:37.242Z,25.18
2022-08-28T13:24:40.847Z,25.23
2022-08-28T13:27:22.083Z,25.64
2022-08-28T13:30:05.089Z,25.62
2022-08-28T13:32:37.275Z,25.61
2022-08-28T13:35:38.845Z,25.23
2022-08-28T13:38:11.548Z,25.10
2022-08-28T13:40:57.363Z,25.41
2022-08-28T13:43:30.268Z,25.37
2022-08-28T13:45:58.773Z,25.59
2022-08-28T13:48:28.980Z,25.11
2022-08-28T13:51:07.077Z,25.35
2022-08-28T13:53:39.568Z,25.54
2022-08-28T13:56:08.243Z,25.35
2022-08-28T13:58:36.475Z,25.33
2022-08-28T14:01:05.705Z,25.28
2022-08-28T14:03:36.295Z,25.29
2022-08-28T14:06:11.881Z,24.72
2022-08-28T14:08:41.806Z,25.23
2022-08-28T14:11:12.762Z,25.38
2022-08-28T14:13:47.038Z,25.75
2022-08-28T14:16:24.903Z,26.08
2022-08-28T14:18:53.862Z,26.06
2022-08-28T14:21:24.425Z,25.94
2022-08-28T14:23:52.798Z,26.01
2022-08-28T14:26:21.059Z,26.30
2022-08-28T14:28:49.416Z,25.97
2022-08-28T14:31:17.919Z,26.41
2022-08-28T14:33:46.404Z,26.32
2022-08-28T14:36:20.238Z,26.34
2022-08-28T14:38:53.677Z,26.75
2022-08-28T14:41:23.054Z,26.66
2022-08-28T14:43:51.736Z,26.08
2022-08-28T14:46:23.635Z,26.52
2022-08-28T14:48:52.373Z,26.25
2022-08-28T14:51:20.786Z,26.23
2022-08-28T14:53:50.374Z,26.19
2022-08-28T14:56:22.287Z,26.54
2022-08-28T14:58:50.543Z,26.24
2022-08-28T15:01:24.489Z,26.64
2022-08-28T15:03:54.912Z,26.92
2022-08-28T15:06:23.495Z,26.60
2022-08-28T15:08:54.230Z,27.23
2022-08-28T15:11:25.307Z,27.53
2022-08-28T15:13:55.139Z,27.23
2022-08-28T15:16:30.243Z,27.42
2022-08-28T15:19:02.004Z,27.57
2022-08-28T15:21:33.209Z,27.29
2022-08-28T15:24:05.480Z,26.74
2022-08-28T15:26:34.988Z,26.48
2022-08-28T15:29:03.612Z,26.53
2022-08-28T15:31:33.175Z,26.73
2022-08-28T15:34:06.396Z,27.03
2022-08-28T15:36:42.568Z,26.70
2022-08-28T15:39:30.800Z,26.59
2022-08-28T15:42:00.395Z,26.61
2022-08-28T15:44:29.206Z,26.39
2022-08-28T15:47:01.023Z,26.61
2022-08-28T15:49:36.267Z,26.58
2022-08-28T15:52:15.154Z,26.42
2022-08-28T15:54:44.744Z,25.97
2022-08-28T15:57:13.000Z,26.19
2022-08-28T15:59:48.914Z,26.64
2022-08-28T16:02:19.964Z,26.37
2022-08-28T16:04:48.619Z,26.67
2022-08-28T16:07:17.919Z,26.73
2022-08-28T16:09:47.974Z,26.31
2022-08-28T16:12:16.572Z,26.46
2022-08-28T16:14:45.082Z,26.56
2022-08-28T16:17:13.736Z,26.73
2022-08-28T16:19:42.844Z,26.51
2022-08-28T16:22:13.061Z,26.67
2022-08-28T16:24:41.269Z,26.50
2022-08-28T16:27:15.383Z,26.25
2022-08-28T16:29:44.446Z,26.33
2022-08-28T16:32:13.579Z,26.32
2022-08-28T16:34:44.968Z,26.22
2022-08-28T16:37:15.836Z,26.11
2022-08-28T16:39:49.184Z,26.00
2022-08-28T16:42:18.728Z,25.96
2022-08-28T16:44:46.991Z,25.71
2022-08-28T16:47:15.863Z,25.59
2022-08-28T16:49:44.073Z,25.55
2022-08-28T16:52:12.242Z,25.40
2022-08-28T16:54:46.063Z,25.41
2022-08-28T16:57:18.932Z,25.22
2022-08-28T16:59:47.340Z,24.40
2022-08-28T17:02:25.363Z,25.02
2022-08-28T17:04:58.124Z,24.84
2022-08-28T17:07:26.399Z,24.98
2022-08-28T17:09:57.316Z,24.85
2022-08-28T17:12:26.925Z,24.16
2022-08-28T17:14:56.439Z,24.47
2022-08-28T17:17:25.235Z,24.41
2022-08-28T17:19:53.475Z,24.42
2022-08-28T17:22:33.032Z,24.39
2022-08-28T17:25:03.287Z,24.34
2022-08-28T17:27:33.071Z,24.34
2022-08-28T17:30:04.689Z,24.34
2022-08-28T17:32:33.123Z,24.11
2022-08-28T17:35:05.483Z,24.25
2022-08-28T17:37:33.809Z,24.01
2022-08-28T17:40:04.125Z,24.00
2022-08-28T17:42:33.673Z,24.08
2022-08-28T17:45:01.876Z,23.89
2022-08-28T17:47:31.030Z,23.94
2022-08-28T17:50:00.167Z,23.65
2022-08-28T17:52:28.657Z,23.68
2022-08-28T17:54:57.037Z,23.53
2022-08-28T17:57:25.388Z,23.32
2022-08-28T17:59:55.127Z,23.33
2022-08-28T18:02:23.413Z,23.15
2022-08-28T18:04:51.695Z,23.09
2022-08-28T18:07:20.685Z,22.88
2022-08-28T18:09:54.037Z,22.82
2022-08-28T18:12:22.258Z,22.73
2022-08-28T18:14:50.518Z,22.56
2022-08-28T18:17:20.184Z,22.55
2022-08-28T18:19:48.511Z,22.32
2022-08-28T18:22:16.842Z,22.25
2022-08-28T18:24:45.065Z,22.19
2022-08-28T18:27:13.292Z,22.07
2022-08-28T18:29:41.555Z,22.13
2022-08-28T18:32:09.832Z,21.72
2022-08-28T18:34:39.462Z,21.71
2022-08-28T18:37:07.717Z,21.50
2022-08-28T18:39:36.671Z,21.44
2022-08-28T18:42:07.168Z,21.23
2022-08-28T18:44:35.682Z,21.09
2022-08-28T18:47:03.939Z,21.11
2022-08-28T18:49:32.200Z,21.10
2022-08-28T18:52:01.874Z,20.94
2022-08-28T18:54:31.238Z,20.66
2022-08-28T18:57:04.329Z,20.86
2022-08-28T18:59:33.360Z,20.71
2022-08-28T19:02:03.526Z,20.60
2022-08-28T19:04:32.520Z,20.46
2022-08-28T19:07:02.083Z,20.34
2022-08-28T19:09:32.569Z,20.46
2022-08-28T19:12:02.916Z,20.29
2022-08-28T19:14:31.373Z,20.06
2022-08-28T19:16:59.806Z,19.76
2022-08-28T19:19:28.616Z,19.94
2022-08-28T19:21:57.747Z,20.01
2022-08-28T19:24:31.170Z,19.80
2022-08-28T19:26:59.358Z,19.33
2022-08-28T19:29:27.914Z,19.71
2022-08-28T19:31:56.901Z,19.35
2022-08-28T19:34:25.251Z,19.43
2022-08-28T19:36:53.626Z,19.64
2022-08-28T19:39:22.190Z,19.46
2022-08-28T19:41:52.309Z,19.42
2022-08-28T19:44:21.072Z,19.38
2022-08-28T19:46:49.552Z,19.30
2022-08-28T19:49:18.053Z,19.05
2022-08-28T19:51:46.348Z,19.02
2022-08-28T19:54:15.876Z,19.10
2022-08-28T19:56:44.636Z,18.27
2022-08-28T19:59:14.207Z,18.97
2022-08-28T20:01:46.353Z,18.98
2022-08-28T20:04:17.692Z,18.24
2022-08-28T20:06:48.233Z,18.85
2022-08-28T20:09:17.266Z,18.81
2022-08-28T20:11:46.979Z,18.74
2022-08-28T20:14:18.292Z,18.75
2022-08-28T20:16:50.923Z,18.68
2022-08-28T20:19:20.904Z,18.66
2022-08-28T20:21:50.909Z,18.77
2022-08-28T20:24:23.592Z,18.55
2022-08-28T20:26:53.292Z,18.69
2022-08-28T20:29:24.190Z,18.49
2022-08-28T20:31:53.117Z,18.31
2022-08-28T20:34:22.090Z,18.27
2022-08-28T20:36:51.302Z,18.22
2022-08-28T20:39:20.841Z,18.13
2022-08-28T20:41:49.716Z,18.12
2022-08-28T20:44:22.198Z,18.10
2022-08-28T20:46:51.570Z,17.99
2022-08-28T20:49:22.040Z,17.65
2022-08-28T20:51:54.429Z,17.82
2022-08-28T20:54:25.538Z,17.84
2022-08-28T20:56:54.761Z,17.72
2022-08-28T20:59:24.640Z,17.65
2022-08-28T21:01:57.479Z,17.70
2022-08-28T21:04:25.748Z,17.67
2022-08-28T21:06:53.980Z,17.63
2022-08-28T21:09:22.981Z,17.51
2022-08-28T21:12:10.943Z,17.59
2022-08-28T21:14:40.553Z,17.52
2022-08-28T21:17:09.117Z,17.45
2022-08-28T21:19:40.589Z,17.38
2022-08-28T21:22:09.047Z,17.17
2022-08-28T21:24:37.277Z,17.26
2022-08-28T21:27:07.697Z,16.99
2022-08-28T21:29:37.875Z,17.34
2022-08-28T21:32:07.984Z,17.35
2022-08-28T21:34:37.153Z,17.24
2022-08-28T21:37:06.376Z,16.98
2022-08-28T21:39:34.947Z,17.36
2022-08-28T21:42:03.383Z,17.14
2022-08-28T21:44:31.572Z,17.39
2022-08-28T21:47:00.485Z,17.35
2022-08-28T21:49:30.096Z,17.34
2022-08-28T21:52:01.089Z,17.14
2022-08-28T21:54:33.468Z,17.19
2022-08-28T21:57:01.792Z,17.23
2022-08-28T21:59:33.083Z,17.02
2022-08-28T22:02:06.397Z,17.03
2022-08-28T22:04:38.064Z,16.99
2022-08-28T22:07:07.498Z,16.71
2022-08-28T22:09:35.759Z,16.84
2022-08-28T22:12:04.707Z,16.92
2022-08-28T22:14:32.873Z,16.66
2022-08-28T22:17:01.181Z,15.99
2022-08-28T22:19:29.728Z,16.66
2022-08-28T22:22:16.653Z,16.67
2022-08-28T22:24:45.043Z,16.71
2022-08-28T22:27:14.317Z,16.59
2022-08-28T22:29:42.996Z,16.52
2022-08-28T22:32:12.017Z,16.53
2022-08-28T22:34:44.858Z,16.59
2022-08-28T22:37:15.045Z,16.80
2022-08-28T22:39:43.964Z,16.64
2022-08-28T22:42:12.169Z,16.52
2022-08-28T22:44:40.832Z,16.67
2022-08-28T22:47:09.204Z,16.66
2022-08-28T22:49:39.653Z,16.63
2022-08-28T22:52:11.104Z,16.50
2022-08-28T22:54:40.675Z,16.60
2022-08-28T22:57:10.848Z,15.69
2022-08-28T22:59:39.131Z,16.51
2022-08-28T23:02:07.433Z,16.44
2022-08-28T23:04:35.652Z,16.36
2022-08-28T23:07:03.958Z,16.33
2022-08-28T23:09:32.234Z,16.30
2022-08-28T23:12:07.406Z,16.20
2022-08-28T23:14:35.683Z,16.29
2022-08-28T23:17:04.001Z,16.12
2022-08-28T23:19:32.735Z,16.04
2022-08-28T23:22:01.229Z,16.11
2022-08-28T23:24:30.081Z,15.89
2022-08-28T23:27:13.978Z,15.89
2022-08-28T23:29:53.226Z,15.77
2022-08-28T23:32:21.733Z,15.91
2022-08-28T23:34:50.083Z,15.74
2022-08-28T23:37:19.069Z,15.67
2022-08-28T23:39:47.420Z,15.69
2022-08-28T23:42:15.891Z,16.19
2022-08-28T23:44:44.080Z,15.72
2022-08-28T23:47:15.155Z,15.81
2022-08-28T23:49:43.667Z,15.80
2022-08-28T23:52:12.291Z,15.69
2022-08-28T23:54:41.271Z,15.74
2022-08-28T23:57:11.087Z,15.79
2022-08-28T23:59:39.462Z,15.61
